Time;durP1;ratioP1;P1;durP2;ratioP2;P2;SDS_P1;SDS_P2;PMS_P1;PMS_P2;Temp;Humidity;BMP_temperature;BMP_pressure;BME280_temperature;BME280_humidity;BME280_pressure;Samples;Min_cycle;Max_cycle;Signal;HPM_P1;HPM_P2
2022/02/02 00:05:13;;;;;;;0.93;0.60;;;;;;;6.68;46.78;92159.03;5017083;28;20068;-90
2022/02/02 00:08:00;;;;;;;1.33;0.77;;;;;;;6.42;46.56;92104.59;4988238;28;20045;-89
2022/02/02 00:25:28;;;;;;;0.95;0.52;;;;;;;7.02;44.37;92143.47;5016916;28;20517;-89
2022/02/02 00:28:06;;;;;;;0.82;0.50;;;;;;;6.96;44.67;92154.19;5005976;28;20047;-89
2022/02/02 00:31:02;;;;;;;0.60;0.50;;;;;;;6.74;44.07;92105.94;5014219;28;20041;-90
2022/02/02 00:33:49;;;;;;;;;;;;;;;;;;;;;
2022/02/02 00:36:55;;;;;;;1.55;0.90;;;;;;;7.35;43.20;92182.78;5033190;28;20053;-89
2022/02/02 00:39:57;;;;;;;1.65;0.60;;;;;;;7.27;42.62;92152.91;5037966;28;20052;-90
2022/02/02 00:42:50;;;;;;;3.63;0.80;;;;;;;6.97;42.54;92120.09;5020797;28;20045;-89
2022/02/02 00:48:41;;;;;;;0.50;0.50;;;;;;;7.00;42.46;92097.94;5016489;28;20433;-90
2022/02/02 00:51:24;;;;;;;0.43;0.43;;;;;;;6.94;42.43;92093.84;5028687;28;20466;-89
2022/02/02 00:54:24;;;;;;;;;;;;;;;;;;;;;
2022/02/02 00:57:27;;;;;;;0.73;0.60;;;;;;;7.49;41.54;92138.66;5033337;28;20037;-90
2022/02/02 01:00:32;;;;;;;1.13;0.60;;;;;;;7.14;41.61;92088.47;5006066;28;20037;-89
2022/02/02 01:03:00;;;;;;;0.80;0.60;;;;;;;7.27;42.08;92142.50;5009755;28;20033;-90
2022/02/02 01:05:54;;;;;;;1.90;0.80;;;;;;;7.22;41.49;92115.72;5018492;28;20116;-89
2022/02/02 01:12:29;;;;;;;;;;;;;;;;;;;;;
2022/02/02 01:21:17;;;;;;;0.40;0.40;;;;;;;7.84;40.97;92165.41;5014521;28;20099;-91
2022/02/02 01:29:45;;;;;;;3.42;0.73;;;;;;;7.85;40.42;92159.91;5053469;28;20041;-91
2022/02/02 01:32:45;;;;;;;0.40;0.40;;;;;;;7.87;40.34;92188.31;5029535;28;20424;-90
2022/02/02 01:35:32;;;;;;;0.68;0.63;;;;;;;7.30;40.46;92102.88;5039996;28;20481;-91
2022/02/02 01:38:24;;;;;;;1.05;0.55;;;;;;;7.27;40.75;92087.81;5035407;28;20471;-90
2022/02/02 01:40:56;;;;;;;0.93;0.40;;;;;;;7.16;40.97;92091.56;5015278;28;20040;-88
2022/02/02 01:43:42;;;;;;;0.75;0.50;;;;;;;7.12;41.04;92085.34;5027178;28;20057;-90
2022/02/02 01:46:30;;;;;;;2.47;0.63;;;;;;;7.36;41.11;92139.28;5000439;28;20041;-90
2022/02/02 01:57:23;;;;;;;0.85;0.65;;;;;;;7.08;40.67;92092.16;5006548;28;20049;-90
2022/02/02 01:59:55;;;;;;;1.17;0.65;;;;;;;7.04;40.70;92094.50;5018032;28;20546;-90
2022/02/02 02:03:03;;;;;;;1.90;0.60;;;;;;;7.37;40.61;92101.78;5018218;28;20048;-90
2022/02/02 02:05:41;;;;;;;0.70;0.70;;;;;;;7.13;40.64;92083.53;5018818;28;20041;-90
2022/02/02 02:08:28;;;;;;;0.90;0.50;;;;;;;7.35;40.57;92109.09;5028836;28;20037;-91
2022/02/02 02:11:43;;;;;;;0.73;0.50;;;;;;;7.56;40.48;92120.09;5035188;28;20041;-90
2022/02/02 02:17:14;;;;;;;1.05;0.40;;;;;;;7.33;40.06;92096.34;5002424;28;20053;-89
2022/02/02 02:19:47;;;;;;;0.90;0.52;;;;;;;7.32;39.87;92044.53;5000321;28;20045;-89
2022/02/02 02:22:37;;;;;;;0.85;0.60;;;;;;;7.28;40.25;92073.75;5015774;28;20038;-90
2022/02/02 02:25:51;;;;;;;0.75;0.50;;;;;;;7.16;40.34;92070.75;5025468;28;20048;-88
2022/02/02 02:37:25;;;;;;;;;;;;;;;;;;;;;
2022/02/02 02:40:12;;;;;;;;;;;;;;;;;;;;;
2022/02/02 02:58:22;;;;;;;;;;;;;;;;;;;;;
2022/02/02 03:56:33;;;;;;;0.30;0.30;;;;;;;7.34;43.75;92108.34;5002978;28;20049;-89
2022/02/02 04:10:12;;;;;;;0.40;0.40;;;;;;;7.54;45.08;92143.81;5003001;28;20049;-90
2022/02/02 04:13:06;;;;;;;0.30;0.30;;;;;;;7.04;45.10;92062.50;5054067;28;20039;-89
2022/02/02 04:54:16;;;;;;;0.75;0.50;;;;;;;6.93;47.83;92118.28;4997154;28;20598;-90
2022/02/02 04:59:41;;;;;;;0.40;0.40;;;;;;;7.08;47.54;92120.78;5016297;28;20045;-89
2022/02/02 05:18:01;;;;;;;0.57;0.57;;;;;;;6.71;48.96;92067.47;4949685;28;20046;-89
2022/02/02 05:42:15;;;;;;;0.60;0.40;;;;;;;6.55;49.80;92073.81;5036757;28;20037;-90
2022/02/02 05:45:22;;;;;;;;;;;;;;;;;;;;;
2022/02/02 05:55:29;;;;;;;0.30;0.30;;;;;;;6.97;50.22;92169.53;5030340;28;20056;-91
2022/02/02 06:02:10;;;;;;;0.47;0.40;;;;;;;6.51;50.91;92093.59;5017377;28;20113;-91
2022/02/02 06:05:06;;;;;;;;;;;;;;;;;;;;;
2022/02/02 06:07:53;;;;;;;0.30;0.30;;;;;;;6.61;51.00;92120.34;5035746;28;20029;-92
2022/02/02 06:11:04;;;;;;;0.40;0.40;;;;;;;6.85;51.62;92149.06;5016261;28;20049;-92
2022/02/02 06:14:07;;;;;;;;;;;;;;;;;;;;;
2022/02/02 06:19:43;;;;;;;;;;;;;;;;;;;;;
2022/02/02 06:22:39;;;;;;;0.50;0.50;;;;;;;6.57;51.85;92128.94;5024891;28;20037;-91
2022/02/02 06:25:20;;;;;;;0.45;0.43;;;;;;;6.56;52.42;92146.38;4999049;28;20049;-91
2022/02/02 06:27:59;;;;;;;1.15;0.80;;;;;;;6.45;52.81;92144.88;5021682;28;20114;-91
2022/02/02 06:30:44;;;;;;;0.60;0.60;;;;;;;6.79;52.49;92196.97;5030731;28;20029;-91
2022/02/02 06:33:22;;;;;;;1.33;0.82;;;;;;;6.40;53.58;92140.50;5002780;28;20033;-88
2022/02/02 06:35:52;;;;;;;0.98;0.80;;;;;;;6.67;53.89;92183.53;5016810;28;20053;-89
2022/02/02 06:38:23;;;;;;;0.88;0.50;;;;;;;6.67;54.33;92179.09;5017611;28;20128;-88
2022/02/02 06:40:54;;;;;;;0.50;0.50;;;;;;;6.75;52.63;92156.91;5032944;28;20120;-87
2022/02/02 06:43:24;;;;;;;1.15;0.80;;;;;;;6.83;53.49;92192.00;5033312;28;20422;-88
2022/02/02 06:45:56;;;;;;;0.85;0.68;;;;;;;6.58;54.07;92154.69;5051859;28;20083;-87
2022/02/02 06:48:32;;;;;;;0.82;0.70;;;;;;;6.56;54.25;92146.38;5014159;28;20029;-88
2022/02/02 06:51:16;;;;;;;0.65;0.55;;;;;;;6.46;53.54;92152.44;5014704;28;20047;-90
2022/02/02 06:54:00;;;;;;;1.15;0.80;;;;;;;6.58;53.42;92153.91;5032535;28;20546;-88
2022/02/02 07:05:28;;;;;;;2.95;1.40;;;;;;;9.03;49.03;92207.28;5034343;28;20041;-90
2022/02/02 07:11:16;;;;;;;3.58;0.95;;;;;;;10.13;44.61;92176.25;5034672;28;20037;-87
2022/02/02 07:17:09;;;;;;;1.70;1.10;;;;;;;9.98;45.72;92228.81;5033036;28;20090;-88
2022/02/02 07:20:03;;;;;;;0.85;0.70;;;;;;;9.31;46.91;92208.22;5030855;28;20098;-87
2022/02/02 07:28:25;;;;;;;1.30;1.10;;;;;;;8.49;49.91;92230.19;5055505;28;20032;-89
2022/02/02 07:34:06;;;;;;;2.95;1.25;;;;;;;8.34;49.48;92207.63;5037424;28;20025;-88
2022/02/02 07:36:59;;;;;;;2.45;1.40;;;;;;;8.51;49.60;92228.06;5019392;28;20049;-88
2022/02/02 07:39:36;;;;;;;2.85;1.23;;;;;;;8.88;48.33;92210.91;5017065;28;20037;-88
2022/02/02 07:42:06;;;;;;;3.40;1.30;;;;;;;9.24;47.90;92233.91;5017219;28;20040;-88
2022/02/02 07:44:39;;;;;;;1.73;1.02;;;;;;;9.85;46.47;92243.41;5017612;28;20494;-88
2022/02/02 07:47:11;;;;;;;3.67;1.27;;;;;;;10.60;44.72;92246.81;5017062;28;20036;-88
2022/02/02 07:49:48;;;;;;;2.28;1.10;;;;;;;11.37;42.80;92211.97;5022999;28;20036;-90
2022/02/02 07:52:28;;;;;;;2.22;1.17;;;;;;;12.57;39.69;92206.91;5015742;28;20040;-90
2022/02/02 07:55:25;;;;;;;1.70;1.10;;;;;;;14.40;36.34;92191.03;5018217;28;20060;-91
2022/02/02 07:58:24;;;;;;;1.27;0.90;;;;;;;15.52;33.39;92198.63;4991528;28;20037;-90
2022/02/02 08:01:03;;;;;;;2.17;1.00;;;;;;;17.38;30.95;92224.97;5025926;28;20033;-90
2022/02/02 08:04:01;;;;;;;1.92;1.02;;;;;;;18.75;28.53;92192.22;5012783;28;20064;-89
2022/02/02 08:07:26;;;;;;;1.48;0.85;;;;;;;19.58;27.05;92250.56;5036717;28;20141;-89
2022/02/02 08:10:40;;;;;;;;;;;;;;;;;;;;;
2022/02/02 08:13:31;;;;;;;1.92;0.90;;;;;;;19.93;25.26;92255.88;5017064;28;20037;-91
2022/02/02 08:16:43;;;;;;;1.77;0.90;;;;;;;21.02;23.35;92220.16;5015096;28;20041;-91
2022/02/02 08:19:42;;;;;;;;;;;;;;;;;;;;;
2022/02/02 08:22:13;;;;;;;2.38;0.82;;;;;;;19.32;25.05;92196.94;5018988;28;19924;-90
2022/02/02 08:24:56;;;;;;;0.93;0.75;;;;;;;19.14;24.93;92188.59;5034988;28;20033;-91
2022/02/02 08:27:39;;;;;;;0.80;0.70;;;;;;;21.28;23.10;92224.75;5030043;28;20091;-90
2022/02/02 08:30:19;;;;;;;1.20;0.75;;;;;;;21.38;22.57;92256.06;5014101;28;20033;-91
2022/02/02 08:33:32;;;;;;;1.75;0.80;;;;;;;22.15;21.71;92232.69;5013022;28;20045;-90
2022/02/02 08:36:23;;;;;;;;;;;;;;;;;;;;;
2022/02/02 08:41:52;;;;;;;1.40;0.60;;;;;;;21.02;21.87;92182.91;5030971;28;20048;-90
2022/02/02 08:45:12;;;;;;;;;;;;;;;;;;;;;
2022/02/02 08:47:59;;;;;;;3.40;0.60;;;;;;;19.27;24.61;92176.00;5053134;28;20051;-91
2022/02/02 08:50:49;;;;;;;0.57;0.50;;;;;;;17.87;26.58;92177.97;5018103;28;20046;-91
2022/02/02 09:02:05;;;;;;;1.05;0.60;;;;;;;17.05;26.93;92191.53;5020356;28;20063;-91
2022/02/02 09:08:30;;;;;;;2.88;0.77;;;;;;;17.04;26.85;92219.06;5046899;28;20037;-92
2022/02/02 09:32:49;;;;;;;;;;;;;;;;;;;;;
2022/02/02 09:38:41;;;;;;;;;;;;;;;;;;;;;
2022/02/02 09:41:49;;;;;;;1.02;0.60;;;;;;;16.53;27.64;92189.56;5053023;28;20048;-91
2022/02/02 09:45:17;;;;;;;;;;;;;;;;;;;;;
2022/02/02 09:48:26;;;;;;;0.63;0.43;;;;;;;16.72;26.76;92218.84;5018686;28;20437;-91
2022/02/02 09:51:52;;;;;;;;;;;;;;;;;;;;;
2022/02/02 09:54:40;;;;;;;1.15;0.65;;;;;;;16.13;28.28;92243.72;5017266;28;20037;-91
2022/02/02 10:04:18;;;;;;;0.85;0.55;;;;;;;16.62;29.94;92261.56;5035782;28;20057;-93
2022/02/02 10:16:05;;;;;;;;;;;;;;;;;;;;;
2022/02/02 10:19:10;;;;;;;0.20;0.20;;;;;;;16.64;29.84;92276.00;5032341;28;20025;-90
2022/02/02 10:22:37;;;;;;;;;;;;;;;;;;;;;
2022/02/02 10:25:57;;;;;;;;;;;;;;;;;;;;;
2022/02/02 10:28:52;;;;;;;0.22;0.22;;;;;;;17.22;29.04;92241.53;5027464;28;20123;-91
2022/02/02 10:32:06;;;;;;;0.90;0.45;;;;;;;17.47;27.65;92239.63;5032423;28;20044;-91
2022/02/02 10:34:53;;;;;;;0.20;0.20;;;;;;;17.64;26.75;92246.53;5005312;28;20056;-92
2022/02/02 10:38:10;;;;;;;;;;;;;;;;;;;;;
2022/02/02 10:44:23;;;;;;;0.10;0.10;;;;;;;16.29;30.58;92259.72;5012971;28;20548;-91
2022/02/02 10:47:29;;;;;;;0.28;0.28;;;;;;;16.43;30.52;92262.06;5015773;28;20041;-91
2022/02/02 10:50:40;;;;;;;0.20;0.20;;;;;;;17.09;31.11;92347.66;4998360;28;20483;-90
2022/02/02 10:53:28;;;;;;;0.30;0.30;;;;;;;16.55;31.23;92298.31;5025324;28;20029;-91
2022/02/02 11:08:21;;;;;;;0.28;0.28;;;;;;;17.06;30.01;92301.47;5004768;28;20392;-90
2022/02/02 11:12:18;;;;;;;;;;;;;;;;;;;;;
2022/02/02 11:18:32;;;;;;;0.20;0.20;;;;;;;16.89;30.04;92276.03;5006492;28;20042;-90
2022/02/02 11:21:43;;;;;;;0.20;0.20;;;;;;;16.66;30.70;92273.00;5019955;28;20475;-91
2022/02/02 11:27:43;;;;;;;0.40;0.35;;;;;;;16.14;30.56;92321.06;5013666;28;20052;-90
2022/02/02 11:34:11;;;;;;;0.30;0.30;;;;;;;16.21;31.46;92306.25;5043591;28;20465;-90
2022/02/02 11:37:01;;;;;;;0.20;0.20;;;;;;;16.31;30.86;92294.50;5036604;28;20044;-91
2022/02/02 11:39:50;;;;;;;0.35;0.30;;;;;;;16.65;30.19;92289.97;5031197;28;20041;-91
2022/02/02 11:46:02;;;;;;;;;;;;;;;;;;;;;
2022/02/02 11:48:44;;;;;;;0.50;0.30;;;;;;;16.82;30.41;92366.47;5059849;28;20117;-90
2022/02/02 11:51:53;;;;;;;0.40;0.40;;;;;;;16.23;31.20;92290.06;5029195;28;20037;-91
2022/02/02 11:54:41;;;;;;;0.35;0.35;;;;;;;16.29;31.65;92349.53;5030695;28;20038;-91
2022/02/02 11:57:46;;;;;;;;;;;;;;;;;;;;;
2022/02/02 12:01:06;;;;;;;0.40;0.40;;;;;;;16.13;31.24;92272.78;5053792;28;20402;-90
2022/02/02 12:04:37;;;;;;;;;;;;;;;;;;;;;
2022/02/02 12:06:56;;;;;;;0.30;0.30;;;;;;;16.22;29.84;92302.50;5023269;28;20052;-90
2022/02/02 12:09:58;;;;;;;0.30;0.30;;;;;;;16.40;29.60;92300.47;5054843;28;20072;-90
2022/02/02 12:58:27;;;;;;;;;;;;;;;;;;;;;
2022/02/02 13:01:20;;;;;;;0.30;0.30;;;;;;;15.07;33.50;92338.97;5013525;28;20045;-91
2022/02/02 13:04:27;;;;;;;0.30;0.30;;;;;;;15.38;33.98;92339.44;4991023;28;20377;-91
2022/02/02 13:07:23;;;;;;;0.30;0.30;;;;;;;14.62;35.68;92334.16;4990696;28;20048;-92
2022/02/02 13:10:21;;;;;;;0.63;0.40;;;;;;;14.20;34.92;92270.72;5002876;28;20053;-92
2022/02/02 13:13:31;;;;;;;1.35;0.50;;;;;;;13.66;35.75;92263.19;4999730;28;20049;-92
2022/02/02 13:16:26;;;;;;;;;;;;;;;;;;;;;
2022/02/02 13:19:14;;;;;;;0.50;0.45;;;;;;;14.02;35.94;92222.59;4984381;28;20491;-89
2022/02/02 13:22:05;;;;;;;0.30;0.30;;;;;;;14.49;34.86;92291.09;4996705;28;20034;-91
2022/02/02 13:25:07;;;;;;;;;;;;;;;;;;;;;
2022/02/02 13:27:59;;;;;;;0.30;0.30;;;;;;;13.82;34.24;92237.19;5000701;28;20052;-90
2022/02/02 13:30:59;;;;;;;1.08;0.40;;;;;;;14.39;34.43;92300.09;5024700;28;20032;-91
2022/02/02 13:33:53;;;;;;;;;;;;;;;;;;;;;
2022/02/02 13:43:25;;;;;;;0.43;0.40;;;;;;;13.48;33.68;92217.72;5031843;28;20529;-89
2022/02/02 13:46:39;;;;;;;0.80;0.50;;;;;;;14.06;33.02;92247.22;5038456;28;20032;-90
2022/02/02 13:50:11;;;;;;;0.30;0.30;;;;;;;13.89;34.20;92240.91;5032161;28;20112;-89
2022/02/02 13:53:23;;;;;;;0.47;0.47;;;;;;;14.08;33.21;92258.19;5034554;28;20068;-89
2022/02/02 14:00:35;;;;;;;0.80;0.60;;;;;;;13.62;34.60;92228.84;5041098;28;20029;-90
2022/02/02 14:06:51;;;;;;;0.30;0.30;;;;;;;14.03;35.02;92266.28;5040556;28;20571;-90
2022/02/02 14:10:01;;;;;;;0.40;0.40;;;;;;;14.14;33.14;92214.84;5034785;28;20394;-89
2022/02/02 14:31:53;;;;;;;0.30;0.30;;;;;;;14.34;31.43;92266.03;4973339;28;20416;-89
2022/02/02 14:34:18;;;;;;;2.15;0.35;;;;;;;14.49;32.61;92301.63;4989787;28;20067;-90
2022/02/02 14:36:46;;;;;;;0.80;0.32;;;;;;;14.58;31.22;92297.13;4972072;28;20076;-89
2022/02/02 14:39:17;;;;;;;0.35;0.35;;;;;;;14.64;31.74;92285.34;5001892;28;20104;-91
2022/02/02 14:41:57;;;;;;;0.30;0.30;;;;;;;14.84;31.42;92312.06;4992578;28;20045;-91
2022/02/02 14:44:34;;;;;;;0.30;0.30;;;;;;;14.68;31.94;92290.72;4995825;28;20554;-89
2022/02/02 14:47:10;;;;;;;0.30;0.30;;;;;;;13.78;33.06;92244.13;4988600;28;20203;-89
2022/02/02 14:49:51;;;;;;;0.30;0.30;;;;;;;13.81;33.10;92238.28;5002108;28;20175;-90
2022/02/02 15:24:27;;;;;;;0.70;0.50;;;;;;;13.58;31.67;92288.41;5042948;28;20041;-90
2022/02/02 15:32:29;;;;;;;0.38;0.38;;;;;;;13.21;32.35;92300.22;5017800;28;20043;-90
2022/02/02 15:35:20;;;;;;;0.38;0.38;;;;;;;12.76;32.88;92250.50;5004112;28;20487;-89
2022/02/02 15:38:15;;;;;;;;;;;;;;;;;;;;;
2022/02/02 15:41:29;;;;;;;0.40;0.40;;;;;;;12.00;33.83;92275.00;5018574;28;20045;-89
2022/02/02 15:59:08;;;;;;;0.30;0.30;;;;;;;10.23;36.57;92273.91;5042289;28;20479;-90
2022/02/02 16:04:32;;;;;;;1.20;0.40;;;;;;;10.29;37.12;92318.03;5023591;28;20033;-89
2022/02/02 16:07:20;;;;;;;0.30;0.30;;;;;;;9.83;37.91;92273.53;4992427;28;20150;-89
2022/02/02 17:30:43;;;;;;;0.95;0.77;;;;;;;8.82;40.86;92434.66;5033571;28;20038;-79
2022/02/02 17:33:27;;;;;;;0.50;0.50;;;;;;;8.54;41.27;92421.34;5049323;28;20398;-79
2022/02/02 17:38:52;;;;;;;2.05;1.30;;;;;;;8.70;40.73;92423.81;5009864;28;20035;-79
2022/02/02 17:44:36;;;;;;;0.60;0.50;;;;;;;8.72;41.14;92432.16;4993371;28;20081;-79
2022/02/02 18:19:10;;;;;;;0.30;0.30;;;;;;;8.57;39.70;92468.81;4994517;28;20042;-80
2022/02/02 18:21:37;;;;;;;0.30;0.30;;;;;;;8.50;40.15;92476.97;4993426;28;20128;-77
2022/02/02 18:26:58;;;;;;;0.30;0.30;;;;;;;8.47;39.98;92477.50;4976767;28;20486;-77
2022/02/02 18:32:15;;;;;;;0.50;0.35;;;;;;;8.53;39.88;92481.63;4992605;28;20041;-78
2022/02/02 18:34:51;;;;;;;0.30;0.30;;;;;;;8.43;39.72;92474.66;4994417;28;20469;-77
2022/02/02 18:43:14;;;;;;;1.45;0.70;;;;;;;8.51;38.94;92488.94;4961289;28;20046;-77
2022/02/02 18:53:54;;;;;;;0.30;0.30;;;;;;;8.36;38.76;92494.25;4983722;28;20659;-77
2022/02/02 18:56:38;;;;;;;1.50;0.80;;;;;;;8.37;39.11;92503.63;4973786;28;20451;-79
2022/02/02 19:01:57;;;;;;;1.08;0.52;;;;;;;8.42;39.20;92519.25;4993039;28;20385;-79
2022/02/02 19:07:17;;;;;;;10.68;5.25;;;;;;;8.41;39.26;92526.31;4994493;28;20052;-75
2022/02/02 19:31:41;;;;;;;0.40;0.40;;;;;;;8.27;40.06;92585.34;5011905;28;20442;-77
2022/02/02 19:40:04;;;;;;;0.40;0.40;;;;;;;8.09;40.03;92587.50;5011943;28;20446;-76
2022/02/02 20:11:36;;;;;;;0.60;0.57;;;;;;;7.78;40.70;92628.53;5011706;28;20034;-77
2022/02/02 20:14:02;;;;;;;0.60;0.50;;;;;;;7.75;40.97;92643.94;5010527;28;20030;-76
2022/02/02 20:16:28;;;;;;;1.00;0.70;;;;;;;7.71;40.80;92649.66;5010467;28;20084;-75
2022/02/02 20:18:56;;;;;;;0.40;0.40;;;;;;;7.66;41.02;92652.28;4984829;28;20042;-75
2022/02/02 20:21:25;;;;;;;0.47;0.47;;;;;;;7.62;41.35;92646.03;5009499;28;20032;-75
2022/02/02 20:23:51;;;;;;;0.65;0.50;;;;;;;7.64;41.07;92649.16;5011919;28;20092;-75
2022/02/02 20:26:21;;;;;;;1.23;0.75;;;;;;;7.60;41.36;92658.53;4984553;28;20049;-75
2022/02/02 20:28:48;;;;;;;3.17;0.80;;;;;;;7.59;41.00;92662.19;5008585;28;20034;-75
2022/02/02 20:31:15;;;;;;;0.93;0.65;;;;;;;7.49;41.29;92651.75;5008334;28;20030;-75
2022/02/02 20:33:41;;;;;;;0.30;0.30;;;;;;;7.65;40.80;92662.94;4999556;28;20088;-75
2022/02/02 20:36:07;;;;;;;1.35;0.60;;;;;;;7.58;40.96;92657.22;5011385;28;20040;-75
2022/02/02 20:38:33;;;;;;;0.38;0.38;;;;;;;7.62;41.12;92656.44;4994017;28;20530;-75
2022/02/02 20:41:00;;;;;;;0.45;0.45;;;;;;;7.62;41.05;92661.66;4984543;28;20050;-75
2022/02/02 20:43:34;;;;;;;0.20;0.20;;;;;;;7.61;41.09;92667.13;4992426;28;20105;-75
2022/02/02 21:10:12;;;;;;;0.32;0.32;;;;;;;7.60;41.04;92694.22;4981399;28;20729;-75
2022/02/02 21:15:25;;;;;;;0.40;0.40;;;;;;;7.65;40.92;92692.38;4985915;28;20475;-75
2022/02/02 21:17:54;;;;;;;0.35;0.35;;;;;;;7.65;40.77;92700.19;4983504;28;20482;-75
2022/02/02 21:21:06;;;;;;;0.30;0.30;;;;;;;7.70;40.92;92691.59;5002492;28;21607;-75
2022/02/02 21:23:26;;;;;;;0.30;0.30;;;;;;;7.76;40.71;92685.34;4981154;28;20287;-75
2022/02/02 21:28:31;;;;;;;0.40;0.40;;;;;;;7.78;40.40;92692.91;4965917;28;19925;-77
2022/02/02 21:30:56;;;;;;;0.40;0.40;;;;;;;7.84;40.47;92695.25;4947662;28;20034;-77
2022/02/02 21:33:22;;;;;;;0.30;0.30;;;;;;;7.89;40.31;92692.63;4994980;28;20048;-77
2022/02/02 21:35:50;;;;;;;0.47;0.47;;;;;;;7.86;40.36;92695.75;4993710;28;20128;-77
2022/02/02 21:38:21;;;;;;;0.40;0.40;;;;;;;7.92;40.03;92696.50;4981226;28;20162;-77
2022/02/02 21:40:52;;;;;;;0.30;0.30;;;;;;;7.94;39.98;92689.22;4990414;28;20110;-77
2022/02/02 21:43:19;;;;;;;0.30;0.30;;;;;;;8.02;39.78;92695.72;4979082;28;20064;-77
2022/02/02 21:45:44;;;;;;;0.30;0.30;;;;;;;8.06;39.53;92687.13;4971303;28;20093;-77
2022/02/02 21:48:10;;;;;;;0.40;0.40;;;;;;;8.09;39.90;92698.84;4990310;28;20026;-77
2022/02/02 21:51:19;;;;;;;0.40;0.40;;;;;;;8.11;39.56;92702.72;4999371;28;20068;-77
2022/02/02 21:53:28;;;;;;;0.50;0.50;;;;;;;8.14;39.49;92694.38;4972907;28;20046;-77
2022/02/02 21:55:53;;;;;;;0.30;0.30;;;;;;;8.24;39.42;92696.19;4991238;28;20026;-77
2022/02/02 21:58:19;;;;;;;0.35;0.35;;;;;;;8.27;39.57;92705.31;4969574;28;20288;-79
2022/02/02 22:00:52;;;;;;;0.40;0.40;;;;;;;7.98;39.34;92671.22;5076522;23;20054;-90
2022/02/02 22:03:43;;;;;;;0.30;0.30;;;;;;;7.99;39.29;92685.81;5012438;28;20060;-89
2022/02/02 22:06:20;;;;;;;0.40;0.40;;;;;;;7.93;39.11;92651.94;5035455;28;20095;-88
2022/02/02 22:09:09;;;;;;;0.25;0.25;;;;;;;8.01;38.84;92653.22;5014518;28;20033;-89
2022/02/02 22:11:53;;;;;;;0.30;0.30;;;;;;;8.08;38.98;92658.94;5031379;28;20082;-88
2022/02/02 22:14:40;;;;;;;0.30;0.30;;;;;;;8.12;38.72;92659.97;5035335;28;20036;-89
2022/02/02 22:17:25;;;;;;;0.32;0.32;;;;;;;8.19;38.49;92645.88;5019880;28;20048;-88
2022/02/02 22:20:17;;;;;;;;;;;;;;;;;;;;;
2022/02/02 22:22:53;;;;;;;0.20;0.20;;;;;;;8.44;38.64;92712.81;5011967;28;20068;-89
2022/02/02 22:25:32;;;;;;;;;;;;;;;;;;;;;
2022/02/02 22:28:30;;;;;;;0.30;0.30;;;;;;;8.06;39.21;92655.81;5070875;28;20041;-89
2022/02/02 22:31:14;;;;;;;0.40;0.40;;;;;;;7.95;39.68;92648.28;5040836;28;20051;-89
2022/02/02 22:34:03;;;;;;;0.30;0.30;;;;;;;8.07;39.15;92652.16;5053548;28;20086;-89
2022/02/02 22:36:50;;;;;;;0.30;0.30;;;;;;;8.12;39.36;92675.59;5048750;28;20033;-89
2022/02/02 22:39:30;;;;;;;0.30;0.30;;;;;;;7.87;39.01;92639.19;5002131;28;20373;-89
2022/02/02 22:42:35;;;;;;;0.30;0.30;;;;;;;7.83;39.69;92645.97;5027687;28;20041;-89
2022/02/02 22:45:32;;;;;;;0.30;0.30;;;;;;;8.03;39.76;92694.66;5025219;28;20489;-89
2022/02/02 22:48:17;;;;;;;0.32;0.32;;;;;;;7.78;39.14;92632.97;5018699;28;20045;-89
2022/02/02 22:51:16;;;;;;;;;;;;;;;;;;;;;
2022/02/02 22:54:39;;;;;;;;;;;;;;;;;;;;;
2022/02/02 22:57:22;;;;;;;0.30;0.30;;;;;;;7.90;39.33;92633.44;5036183;28;20045;-91
2022/02/02 22:59:52;;;;;;;0.30;0.30;;;;;;;7.92;39.17;92639.16;5011038;28;20055;-89
2022/02/02 23:05:47;;;;;;;0.25;0.25;;;;;;;8.12;39.66;92691.25;5024375;28;20034;-89
2022/02/02 23:08:21;;;;;;;0.30;0.30;;;;;;;7.72;40.03;92646.00;5005109;28;20037;-90
2022/02/02 23:10:49;;;;;;;0.30;0.30;;;;;;;7.73;39.74;92646.78;5043197;28;20068;-89
2022/02/02 23:13:48;;;;;;;0.20;0.20;;;;;;;7.66;39.66;92636.63;5027594;28;20032;-89
2022/02/02 23:16:31;;;;;;;0.30;0.30;;;;;;;7.64;39.70;92648.38;5021470;28;20064;-89
2022/02/02 23:19:17;;;;;;;0.30;0.30;;;;;;;8.00;39.69;92700.41;5042237;28;20025;-89
2022/02/02 23:22:11;;;;;;;0.20;0.20;;;;;;;7.87;39.72;92693.94;5027137;28;20048;-90
2022/02/02 23:24:42;;;;;;;;;;;;;;;8.04;40.25;92730.91;5066311;28;20048;-91
2022/02/02 23:27:28;;;;;;;1.75;0.40;;;;;;;7.71;39.66;92683.53;5039585;28;20289;-89
2022/02/02 23:30:32;;;;;;;0.40;0.40;;;;;;;7.51;40.20;92654.91;5020180;28;20398;-89
2022/02/02 23:33:14;;;;;;;0.30;0.30;;;;;;;7.71;40.56;92691.34;5007684;28;20043;-89
2022/02/02 23:35:49;;;;;;;0.40;0.40;;;;;;;7.45;40.73;92661.94;5018577;28;20045;-89
2022/02/02 23:38:20;;;;;;;0.32;0.30;;;;;;;7.29;40.39;92648.16;5020035;28;20602;-89
2022/02/02 23:44:17;;;;;;;;;;;;;;;;;;;;;
2022/02/02 23:47:08;;;;;;;;;;;;;;;;;;;;;
2022/02/02 23:50:10;;;;;;;0.40;0.40;;;;;;;7.32;40.73;92646.84;5055656;28;20123;-90
2022/02/02 23:53:04;;;;;;;;;;;;;;;;;;;;;
2022/02/02 23:56:10;;;;;;;;;;;;;;;;;;;;;
2022/02/02 23:59:31;;;;;;;0.50;0.50;;;;;;;7.19;40.97;92637.72;5073117;28;20409;-89
